Time;durP1;ratioP1;P1;durP2;ratioP2;P2;SDS_P1;SDS_P2;PMS_P1;PMS_P2;Temp;Humidity;BMP_temperature;BMP_pressure;BME280_temperature;BME280_humidity;BME280_pressure;Samples;Min_cycle;Max_cycle;Signal;HPM_P1;HPM_P2
2022/06/07 00:00:14;;;;;;;9.35;6.53;;;;;;;13.64;88.97;96135.81;2002115;29;20560;-60
2022/06/07 00:01:16;;;;;;;9.38;6.10;;;;;;;13.61;89.28;96120.31;2002298;29;20538;-61
2022/06/07 00:02:24;;;;;;;12.25;6.85;;;;;;;13.56;89.55;96127.56;2009830;29;20053;-60
2022/06/07 00:03:26;;;;;;;11.05;6.93;;;;;;;13.58;90.47;96130.91;2010615;29;20041;-62
2022/06/07 00:04:27;;;;;;;12.30;7.68;;;;;;;13.60;90.30;96122.06;2018562;29;20044;-60
2022/06/07 00:05:28;;;;;;;11.45;7.93;;;;;;;13.59;90.84;96124.78;2010312;29;20057;-60
2022/06/07 00:06:30;;;;;;;15.88;8.00;;;;;;;13.62;90.91;96116.78;2009882;29;20560;-63
2022/06/07 00:07:31;;;;;;;12.55;8.00;;;;;;;13.53;90.77;96125.13;2016639;29;20067;-60
2022/06/07 00:08:32;;;;;;;8.45;7.32;;;;;;;13.56;91.08;96125.81;2017164;29;20045;-60
2022/06/07 00:09:34;;;;;;;9.88;7.40;;;;;;;13.55;91.05;96123.25;2016617;29;20041;-65
2022/06/07 00:10:35;;;;;;;7.00;6.18;;;;;;;13.54;91.14;96119.81;2017049;29;20480;-60
2022/06/07 00:11:36;;;;;;;9.65;7.13;;;;;;;13.53;91.07;96120.75;2009762;29;20052;-61
2022/06/07 00:12:37;;;;;;;8.07;5.53;;;;;;;13.41;90.59;96117.06;2009505;29;20056;-59
2022/06/07 00:13:38;;;;;;;9.40;6.07;;;;;;;13.39;90.62;96113.72;2009795;29;20056;-60
2022/06/07 00:14:39;;;;;;;11.32;7.25;;;;;;;13.38;90.73;96119.84;2017561;29;20556;-65
2022/06/07 00:15:41;;;;;;;10.18;6.32;;;;;;;13.36;90.65;96115.63;2016777;29;20053;-61
2022/06/07 00:16:42;;;;;;;12.40;7.22;;;;;;;13.33;90.85;96123.63;2002486;29;20046;-61
2022/06/07 00:17:44;;;;;;;12.00;7.40;;;;;;;13.35;91.06;96122.63;2009765;29;20050;-65
2022/06/07 00:18:46;;;;;;;9.25;7.20;;;;;;;13.31;91.18;96125.50;2009595;29;20673;-60
2022/06/07 00:19:47;;;;;;;9.77;8.00;;;;;;;13.33;91.34;96123.63;2002614;29;20054;-61
2022/06/07 00:20:48;;;;;;;12.05;7.18;;;;;;;13.30;91.60;96116.81;2009671;29;20052;-61
2022/06/07 00:21:49;;;;;;;7.72;5.72;;;;;;;13.28;91.17;96121.28;2018785;29;20076;-61
2022/06/07 00:22:51;;;;;;;13.90;7.75;;;;;;;13.24;91.20;96124.97;2017629;29;20056;-61
2022/06/07 00:23:52;;;;;;;8.60;6.07;;;;;;;13.24;91.16;96119.75;2009368;29;20064;-67
2022/06/07 00:24:53;;;;;;;7.75;4.95;;;;;;;13.30;91.28;96119.44;2002109;29;20057;-61
2022/06/07 00:25:54;;;;;;;10.20;6.47;;;;;;;13.28;91.32;96121.28;2009687;29;20105;-64
2022/06/07 00:26:56;;;;;;;7.53;5.68;;;;;;;13.22;91.10;96122.44;2002107;29;20552;-58
2022/06/07 00:27:57;;;;;;;6.75;5.57;;;;;;;13.22;91.05;96125.03;2002070;29;20057;-58
2022/06/07 00:28:59;;;;;;;9.15;6.00;;;;;;;12.96;91.23;96076.97;2009308;29;20556;-59
2022/06/07 00:30:00;;;;;;;8.82;5.47;;;;;;;13.18;91.02;96118.34;2002876;29;20062;-61
2022/06/07 00:31:02;;;;;;;9.77;5.57;;;;;;;13.18;91.31;96126.16;2017194;29;20436;-59
2022/06/07 00:32:05;;;;;;;7.43;5.13;;;;;;;13.15;91.51;96115.03;2009696;29;20067;-62
2022/06/07 00:33:06;;;;;;;8.13;5.35;;;;;;;13.16;91.52;96127.16;2010110;29;20059;-60
2022/06/07 00:34:07;;;;;;;7.93;5.32;;;;;;;13.12;91.62;96118.66;2009650;29;20060;-62
2022/06/07 00:35:09;;;;;;;7.68;5.53;;;;;;;13.11;91.33;96119.59;2010078;29;20056;-63
2022/06/07 00:36:10;;;;;;;9.90;6.20;;;;;;;13.13;91.76;96122.13;2017265;29;20060;-61
2022/06/07 00:37:11;;;;;;;8.82;6.40;;;;;;;13.12;91.94;96117.81;2009749;29;20053;-60
2022/06/07 00:38:12;;;;;;;9.25;5.93;;;;;;;13.12;91.57;96116.03;2024721;29;20063;-61
2022/06/07 00:39:14;;;;;;;10.38;5.78;;;;;;;13.12;91.91;96112.59;2025589;29;20606;-60
2022/06/07 00:40:15;;;;;;;8.90;5.80;;;;;;;13.13;91.86;96111.69;2025191;29;20052;-63
2022/06/07 00:41:16;;;;;;;14.75;6.53;;;;;;;13.10;91.52;96106.66;2016565;29;20529;-61
2022/06/07 00:42:18;;;;;;;8.95;6.28;;;;;;;13.09;91.88;96102.34;2017003;29;20468;-60
2022/06/07 00:43:22;;;;;;;11.48;6.85;;;;;;;13.09;91.76;96107.56;2008950;29;20469;-65
2022/06/07 00:44:23;;;;;;;9.60;6.35;;;;;;;13.09;92.01;96104.97;2009552;29;20061;-63
2022/06/07 00:45:24;;;;;;;8.55;6.68;;;;;;;13.05;92.13;96096.47;2009825;29;20050;-60
2022/06/07 00:46:26;;;;;;;8.43;6.57;;;;;;;13.05;91.96;96101.69;2016290;29;20049;-61
2022/06/07 00:47:28;;;;;;;8.57;6.60;;;;;;;13.05;92.60;96100.84;2012277;29;20040;-61
2022/06/07 00:48:30;;;;;;;11.38;7.68;;;;;;;13.03;92.12;96099.16;2016908;29;20053;-61
2022/06/07 00:49:35;;;;;;;11.93;8.05;;;;;;;13.04;92.65;96097.38;2017207;29;20041;-60
2022/06/07 00:50:41;;;;;;;10.35;7.78;;;;;;;13.07;92.66;96094.63;2017586;29;20424;-60
2022/06/07 00:51:44;;;;;;;12.43;6.82;;;;;;;13.14;92.94;96097.72;2016572;29;20405;-61
2022/06/07 00:52:46;;;;;;;10.65;6.30;;;;;;;13.12;92.87;96087.38;2017904;29;20059;-60
2022/06/07 00:53:48;;;;;;;7.65;6.28;;;;;;;13.12;92.73;96089.13;2016836;29;20064;-62
2022/06/07 00:54:59;;;;;;;11.35;7.38;;;;;;;13.11;92.45;96090.91;2016425;29;20049;-65
2022/06/07 00:56:07;;;;;;;10.95;7.28;;;;;;;13.08;92.40;96085.03;2017854;29;20092;-60
2022/06/07 00:57:09;;;;;;;13.57;7.88;;;;;;;13.10;92.66;96084.03;2008973;29;20057;-59
2022/06/07 00:58:12;;;;;;;10.40;8.20;;;;;;;13.10;92.70;96081.41;2009330;29;20053;-60
2022/06/07 00:59:18;;;;;;;14.38;8.85;;;;;;;13.12;92.71;96083.91;2016555;29;20063;-59
2022/06/07 01:00:23;;;;;;;8.43;7.35;;;;;;;13.16;92.98;96080.22;2016882;29;20044;-58
2022/06/07 01:01:25;;;;;;;13.23;9.10;;;;;;;13.16;92.94;96075.00;2009204;29;20053;-60
2022/06/07 01:02:26;;;;;;;15.07;8.88;;;;;;;13.12;93.12;96074.31;2009603;29;20045;-62
2022/06/07 01:03:28;;;;;;;15.30;8.98;;;;;;;13.19;93.57;96070.47;2001495;29;20053;-65
2022/06/07 01:04:30;;;;;;;13.00;10.15;;;;;;;13.20;93.85;96073.91;1994380;29;20057;-64
2022/06/07 01:05:33;;;;;;;15.95;9.65;;;;;;;13.22;93.52;96064.22;2008670;29;20139;-60
2022/06/07 01:11:53;;;;;;;9.93;8.00;;;;;;;13.20;93.54;96045.22;2010032;29;20092;-62
2022/06/07 01:12:55;;;;;;;12.93;9.05;;;;;;;13.19;93.67;96046.16;2010358;29;20041;-62
2022/06/07 01:13:59;;;;;;;13.13;8.90;;;;;;;13.22;93.81;96045.97;2015760;29;20548;-63
2022/06/07 01:15:05;;;;;;;12.30;8.48;;;;;;;13.23;93.60;96052.88;2010188;29;20049;-61
2022/06/07 01:16:07;;;;;;;13.25;9.38;;;;;;;13.18;93.51;96054.91;2008979;29;20564;-62
2022/06/07 01:17:13;;;;;;;11.43;8.43;;;;;;;13.10;93.47;96062.34;2003255;29;20134;-61
2022/06/07 01:18:15;;;;;;;14.30;8.90;;;;;;;13.09;93.55;96066.69;2008579;29;20054;-61
2022/06/07 01:19:18;;;;;;;11.35;7.95;;;;;;;13.07;93.28;96071.16;2017192;29;20524;-59
2022/06/07 01:20:19;;;;;;;14.57;9.98;;;;;;;13.07;93.73;96071.16;2016701;29;20533;-61
2022/06/07 01:21:21;;;;;;;17.80;10.00;;;;;;;13.06;94.11;96058.19;2018222;29;20056;-61
2022/06/07 01:22:23;;;;;;;14.95;9.45;;;;;;;13.11;94.06;96069.22;2018120;29;20525;-61
2022/06/07 01:23:25;;;;;;;11.18;7.97;;;;;;;13.11;93.73;96070.06;2024913;29;20444;-59
2022/06/07 01:24:26;;;;;;;11.32;8.05;;;;;;;13.14;93.72;96072.47;2009053;29;20060;-60
2022/06/07 01:25:36;;;;;;;12.07;7.80;;;;;;;13.07;93.59;96072.91;2011368;29;20045;-61
2022/06/07 01:26:38;;;;;;;13.27;7.88;;;;;;;13.05;93.70;96064.34;2024631;29;20041;-61
2022/06/07 01:27:41;;;;;;;12.57;8.80;;;;;;;13.05;93.87;96069.56;2009122;29;20041;-62
2022/06/07 01:28:43;;;;;;;11.73;8.27;;;;;;;13.04;93.41;96066.09;2009115;29;20041;-62
2022/06/07 01:29:45;;;;;;;12.70;8.20;;;;;;;13.07;93.38;96062.47;2016372;29;20053;-64
2022/06/07 01:30:50;;;;;;;13.05;8.35;;;;;;;13.07;94.05;96062.47;2016781;29;20053;-59
2022/06/07 01:31:51;;;;;;;12.73;9.18;;;;;;;13.12;93.58;96052.63;2023653;29;20570;-65
2022/06/07 01:32:56;;;;;;;10.43;8.40;;;;;;;13.09;93.87;96051.03;2002185;29;20057;-61
2022/06/07 01:33:57;;;;;;;13.20;9.40;;;;;;;13.11;93.76;96051.81;2009182;29;20056;-63
2022/06/07 01:34:59;;;;;;;18.85;11.77;;;;;;;13.06;93.97;96056.44;2016576;29;20045;-60
2022/06/07 01:36:11;;;;;;;14.02;10.60;;;;;;;13.11;93.68;96050.97;2001556;29;20061;-59
2022/06/07 01:37:14;;;;;;;13.77;9.23;;;;;;;13.11;93.98;96049.19;2004684;29;20054;-59
2022/06/07 01:38:15;;;;;;;15.60;10.63;;;;;;;13.10;94.04;96055.34;2012292;29;20056;-62
2022/06/07 01:41:57;;;;;;;13.55;9.65;;;;;;;13.08;93.85;96053.75;2018321;29;20109;-60
2022/06/07 01:43:02;;;;;;;11.00;8.13;;;;;;;13.07;94.33;96050.31;2001777;29;20065;-59
2022/06/07 01:44:03;;;;;;;11.73;8.70;;;;;;;13.10;94.06;96062.34;2002910;29;20049;-60
2022/06/07 01:45:05;;;;;;;10.55;7.82;;;;;;;13.15;93.91;96050.72;2009412;29;20053;-60
2022/06/07 01:46:06;;;;;;;14.10;9.10;;;;;;;13.12;93.71;96050.88;2017047;29;20052;-60
2022/06/07 01:47:12;;;;;;;9.98;7.78;;;;;;;13.13;93.98;96057.78;2002239;29;20072;-61
2022/06/07 01:48:19;;;;;;;13.05;8.45;;;;;;;13.11;93.88;96054.41;2002700;29;20054;-61
2022/06/07 01:49:20;;;;;;;11.50;8.63;;;;;;;13.11;93.97;96058.78;2002213;29;20054;-65
2022/06/07 01:50:21;;;;;;;10.57;8.20;;;;;;;13.09;93.56;96058.03;2009485;29;20057;-61
2022/06/07 01:51:22;;;;;;;11.82;8.15;;;;;;;13.12;93.80;96053.47;2016581;29;20049;-60
2022/06/07 01:52:26;;;;;;;9.75;8.25;;;;;;;13.13;93.89;96051.72;2009530;29;20061;-60
2022/06/07 01:53:31;;;;;;;15.85;8.60;;;;;;;13.11;93.58;96045.75;2010166;29;20049;-60
2022/06/07 01:54:33;;;;;;;11.70;8.85;;;;;;;13.15;93.86;96047.25;2010260;29;20046;-60
2022/06/07 01:55:34;;;;;;;11.05;7.93;;;;;;;13.16;94.03;96048.94;2010519;29;20057;-59
2022/06/07 01:56:40;;;;;;;12.40;8.52;;;;;;;13.12;94.03;96048.25;2003891;29;20041;-58
2022/06/07 01:57:41;;;;;;;11.35;8.77;;;;;;;13.17;94.04;96048.00;2011019;29;20441;-62
2022/06/07 01:58:46;;;;;;;12.90;8.45;;;;;;;13.20;93.59;96042.59;2010948;29;20167;-61
2022/06/07 01:59:48;;;;;;;13.70;9.65;;;;;;;13.20;93.95;96047.81;2009775;29;20060;-60
2022/06/07 02:00:54;;;;;;;12.75;8.65;;;;;;;13.20;93.73;96045.22;2011632;29;20061;-64
2022/06/07 02:01:56;;;;;;;12.38;9.57;;;;;;;13.21;94.02;96042.53;2018271;29;20529;-60
2022/06/07 02:02:57;;;;;;;16.23;10.45;;;;;;;13.24;94.13;96041.53;2017913;29;20155;-61
2022/06/07 02:03:58;;;;;;;12.07;9.85;;;;;;;13.21;94.21;96041.69;2017971;29;20128;-60
2022/06/07 02:04:59;;;;;;;10.80;9.23;;;;;;;13.20;94.21;96048.69;2018273;29;20539;-61
2022/06/07 02:06:04;;;;;;;16.63;10.60;;;;;;;13.20;94.34;96047.81;2010785;29;20164;-64
2022/06/07 02:07:06;;;;;;;14.25;11.02;;;;;;;13.19;94.31;96051.38;2011235;29;20498;-60
2022/06/07 02:08:10;;;;;;;13.20;10.02;;;;;;;13.17;93.92;96045.41;2003184;29;20058;-60
2022/06/07 02:09:13;;;;;;;11.52;9.75;;;;;;;13.12;94.26;96045.66;1996764;29;20067;-62
2022/06/07 02:10:15;;;;;;;14.38;8.80;;;;;;;13.13;94.32;96049.97;1995547;29;20438;-62
2022/06/07 02:11:19;;;;;;;11.52;9.30;;;;;;;13.15;94.16;96049.84;2003640;29;20046;-65
2022/06/07 02:12:29;;;;;;;12.88;10.25;;;;;;;13.16;94.20;96038.50;2006984;29;20057;-60
2022/06/07 02:13:30;;;;;;;14.70;10.80;;;;;;;13.19;94.07;96039.16;2012072;29;20053;-60
2022/06/07 02:14:31;;;;;;;16.45;12.57;;;;;;;13.26;94.55;96042.31;2016956;29;20052;-64
2022/06/07 02:15:33;;;;;;;15.68;10.82;;;;;;;13.19;94.36;96043.56;2010063;29;20180;-60
2022/06/07 02:16:34;;;;;;;15.05;10.40;;;;;;;13.21;94.39;96036.50;2011042;29;20054;-60
2022/06/07 02:17:36;;;;;;;15.50;11.32;;;;;;;13.24;94.08;96038.91;2010702;29;20045;-61
2022/06/07 02:18:57;;;;;;;15.43;11.73;;;;;;;13.25;93.97;96040.59;2020602;29;20473;-60
2022/06/07 02:20:03;;;;;;;13.98;10.75;;;;;;;13.25;94.56;96041.41;2018051;29;20045;-65
2022/06/07 02:21:05;;;;;;;16.48;10.82;;;;;;;13.30;94.46;96038.59;2010904;29;20049;-60
2022/06/07 02:22:07;;;;;;;16.08;10.52;;;;;;;13.30;94.20;96035.16;2020369;29;20440;-62
2022/06/07 02:23:08;;;;;;;14.48;11.48;;;;;;;13.30;94.13;96038.59;2018002;29;20057;-60
2022/06/07 02:24:10;;;;;;;14.82;11.27;;;;;;;13.34;94.35;96036.63;2010483;29;20501;-61
2022/06/07 02:25:11;;;;;;;14.43;11.15;;;;;;;13.32;94.24;96031.53;2010702;29;20081;-60
2022/06/07 02:26:17;;;;;;;15.52;10.15;;;;;;;13.31;94.41;96035.06;2018264;29;20033;-61
2022/06/07 02:27:19;;;;;;;14.40;10.57;;;;;;;13.29;94.38;96033.47;2018187;29;20053;-61
2022/06/07 02:28:23;;;;;;;11.45;9.23;;;;;;;13.27;94.08;96030.94;2017875;29;20536;-60
2022/06/07 02:29:26;;;;;;;15.70;10.10;;;;;;;13.30;94.16;96029.94;2017919;29;20448;-63
2022/06/07 02:30:27;;;;;;;12.30;9.25;;;;;;;13.25;94.38;96024.94;2017715;29;20092;-59
2022/06/07 02:31:29;;;;;;;12.45;9.43;;;;;;;13.28;93.86;96027.41;2011718;29;20042;-60
2022/06/07 02:32:31;;;;;;;12.35;9.85;;;;;;;13.29;94.17;96023.03;2025653;29;20432;-60
2022/06/07 02:33:33;;;;;;;9.48;8.27;;;;;;;13.23;93.83;96024.19;2026034;29;20152;-60
2022/06/07 02:34:35;;;;;;;12.80;8.63;;;;;;;13.20;94.00;96026.97;2010235;29;20050;-60
2022/06/07 02:35:39;;;;;;;9.60;8.27;;;;;;;13.18;93.80;96021.03;2010409;29;20098;-64
2022/06/07 02:36:40;;;;;;;9.93;8.73;;;;;;;13.15;93.67;96008.13;2010623;29;20076;-67
2022/06/07 02:37:41;;;;;;;8.23;7.00;;;;;;;13.17;93.70;96014.09;2010788;29;20057;-62
2022/06/07 02:38:43;;;;;;;10.05;6.15;;;;;;;13.14;93.52;96015.13;2010861;29;20053;-64
2022/06/07 02:39:44;;;;;;;9.85;6.18;;;;;;;13.07;93.12;96008.59;2010648;29;20048;-64
2022/06/07 02:40:45;;;;;;;8.50;6.00;;;;;;;13.02;93.01;96014.06;2018370;29;20060;-62
2022/06/07 02:41:47;;;;;;;8.05;5.93;;;;;;;13.00;93.28;96010.69;2008611;29;20065;-60
2022/06/07 02:42:48;;;;;;;9.68;6.10;;;;;;;12.95;92.91;96012.72;2011007;29;20049;-58
2022/06/07 02:43:49;;;;;;;9.65;5.47;;;;;;;12.94;93.05;96013.66;2018033;29;20053;-60
2022/06/07 02:44:50;;;;;;;6.82;5.55;;;;;;;12.89;92.86;96014.84;2025594;29;20049;-60
2022/06/07 02:45:51;;;;;;;6.15;5.13;;;;;;;12.90;92.65;96009.53;2010102;29;20564;-60
2022/06/07 02:46:53;;;;;;;7.57;6.07;;;;;;;12.87;93.08;96017.53;2010766;29;20537;-64
2022/06/07 02:47:54;;;;;;;9.85;6.32;;;;;;;12.87;92.71;96020.13;2014415;29;20060;-60
2022/06/07 02:50:25;;;;;;;9.45;6.15;;;;;;;12.87;93.11;96014.91;2002863;29;20049;-60
2022/06/07 02:51:28;;;;;;;7.75;5.63;;;;;;;12.85;93.05;96010.72;2010004;29;20052;-60
2022/06/07 02:52:30;;;;;;;11.38;6.65;;;;;;;12.79;93.02;96009.28;2002224;29;20042;-60
2022/06/07 02:53:41;;;;;;;9.25;5.95;;;;;;;12.75;93.30;96012.97;1996521;29;20055;-62
2022/06/07 02:54:42;;;;;;;8.48;5.20;;;;;;;12.76;93.31;96004.25;2002379;29;20053;-61
2022/06/07 02:55:45;;;;;;;8.40;5.53;;;;;;;12.72;92.90;96005.34;1995050;29;20050;-62
2022/06/07 02:56:55;;;;;;;6.95;5.18;;;;;;;12.76;92.97;96005.09;1995672;29;20058;-60
2022/06/07 02:57:58;;;;;;;10.40;5.95;;;;;;;12.76;93.44;96002.50;2003226;29;20057;-62
2022/06/07 02:59:01;;;;;;;7.75;5.22;;;;;;;12.75;93.17;95997.34;2010275;29;20451;-60
2022/06/07 03:00:05;;;;;;;7.22;5.70;;;;;;;12.74;93.42;96001.72;2010227;29;20077;-60
2022/06/07 03:01:07;;;;;;;7.65;6.32;;;;;;;12.71;93.44;96001.91;2002553;29;20050;-58
2022/06/07 03:02:14;;;;;;;11.40;6.55;;;;;;;12.71;93.92;95996.69;2003157;29;20066;-60
2022/06/07 03:03:15;;;;;;;9.38;6.32;;;;;;;12.70;93.74;96002.84;2002521;29;20054;-62
2022/06/07 03:04:19;;;;;;;10.68;6.60;;;;;;;12.69;93.37;96000.31;2002860;29;20542;-60
2022/06/07 03:05:20;;;;;;;8.48;5.80;;;;;;;12.70;93.40;95999.41;2009831;29;20050;-60
2022/06/07 03:06:28;;;;;;;8.40;5.30;;;;;;;12.66;93.09;95993.50;2002183;29;20113;-61
2022/06/07 03:07:29;;;;;;;7.72;4.97;;;;;;;12.67;93.31;95999.53;2010018;29;20049;-60
2022/06/07 03:08:31;;;;;;;8.00;5.20;;;;;;;12.66;93.45;95993.50;2009860;29;20053;-59
2022/06/07 03:09:35;;;;;;;8.80;5.38;;;;;;;12.68;93.17;95998.63;2009160;29;20052;-61
2022/06/07 03:10:38;;;;;;;6.85;5.68;;;;;;;12.67;93.27;95995.19;2002731;29;20049;-60
2022/06/07 03:11:40;;;;;;;7.97;6.18;;;;;;;12.69;93.12;96001.13;2002356;29;20053;-59
2022/06/07 03:12:43;;;;;;;8.15;6.00;;;;;;;12.70;93.53;96002.84;1995611;29;20428;-60
2022/06/07 03:13:50;;;;;;;10.13;6.28;;;;;;;12.71;93.77;96004.50;1996392;29;20216;-62
2022/06/07 03:14:58;;;;;;;7.50;5.75;;;;;;;12.66;93.71;96008.28;2003403;29;20058;-61
2022/06/07 03:15:59;;;;;;;9.57;6.53;;;;;;;12.65;93.66;96006.63;2002053;29;20062;-61
2022/06/07 03:17:01;;;;;;;8.30;6.20;;;;;;;12.67;93.49;96013.44;2002156;29;20415;-60
2022/06/07 03:18:07;;;;;;;10.45;5.93;;;;;;;12.71;93.61;96009.72;2002391;29;20053;-60
2022/06/07 03:19:12;;;;;;;10.38;6.50;;;;;;;12.66;93.43;96009.13;1995127;29;20085;-60
2022/06/07 03:20:15;;;;;;;7.03;5.40;;;;;;;12.68;93.75;96011.66;1995974;29;20053;-59
2022/06/07 03:21:17;;;;;;;12.05;6.65;;;;;;;12.67;93.39;96007.34;2002222;29;20450;-57
2022/06/07 03:22:22;;;;;;;9.43;6.80;;;;;;;12.62;93.77;96012.84;2002779;29;20061;-60
2022/06/07 03:23:24;;;;;;;8.10;5.50;;;;;;;12.63;93.57;96005.88;2002497;29;20061;-60
2022/06/07 03:24:32;;;;;;;9.52;6.38;;;;;;;12.58;93.79;96009.53;1995141;29;20043;-60
2022/06/07 03:25:33;;;;;;;8.55;5.40;;;;;;;12.61;93.80;96003.31;2001722;29;20057;-61
2022/06/07 03:26:39;;;;;;;9.70;6.05;;;;;;;12.60;93.77;96012.09;2002452;29;20053;-59
2022/06/07 03:27:44;;;;;;;7.80;6.20;;;;;;;12.64;93.64;96004.94;2002868;29;20544;-61
2022/06/07 03:28:49;;;;;;;8.57;5.55;;;;;;;12.67;93.83;96004.75;2001228;29;20056;-60
2022/06/07 03:29:52;;;;;;;7.15;5.60;;;;;;;12.62;94.04;95994.59;1996118;29;20054;-61
2022/06/07 03:31:06;;;;;;;7.63;5.53;;;;;;;12.62;94.07;96004.19;1994847;29;20065;-60
2022/06/07 03:32:10;;;;;;;7.88;6.22;;;;;;;12.63;94.13;96005.88;2004548;29;20058;-61
2022/06/07 03:33:13;;;;;;;11.93;6.85;;;;;;;12.62;93.80;96001.59;2009224;29;20582;-61
2022/06/07 03:34:14;;;;;;;8.65;5.65;;;;;;;12.58;93.79;96003.50;2002797;29;20060;-61
2022/06/07 03:35:16;;;;;;;10.07;7.85;;;;;;;12.60;93.96;96001.66;2002639;29;20634;-61
2022/06/07 03:36:21;;;;;;;8.52;5.80;;;;;;;12.61;93.90;96005.09;2004356;29;20049;-60
2022/06/07 03:37:22;;;;;;;10.30;5.97;;;;;;;12.58;93.63;96000.91;2002328;29;20053;-60
2022/06/07 03:38:24;;;;;;;9.27;7.10;;;;;;;12.58;94.36;96001.72;2002377;29;20065;-60
2022/06/07 03:39:25;;;;;;;8.93;6.53;;;;;;;12.57;94.07;96002.66;2002672;29;20057;-61
2022/06/07 03:40:45;;;;;;;8.60;5.65;;;;;;;12.57;94.19;96002.66;2009782;29;20046;-57
2022/06/07 03:41:51;;;;;;;8.25;6.30;;;;;;;12.62;94.21;96002.44;2009741;29;20105;-61
2022/06/07 03:42:58;;;;;;;9.57;5.63;;;;;;;12.63;93.86;96000.66;2009851;29;20061;-60
2022/06/07 03:44:00;;;;;;;10.15;6.28;;;;;;;12.63;94.12;96008.47;2002494;29;20065;-60
2022/06/07 03:45:01;;;;;;;9.68;6.88;;;;;;;12.64;94.33;96002.31;2002368;29;20545;-60
2022/06/07 03:46:12;;;;;;;7.32;6.30;;;;;;;12.63;94.00;96000.66;2002392;29;20116;-61
2022/06/07 03:47:15;;;;;;;10.70;7.47;;;;;;;12.67;93.89;96003.00;2003628;29;20446;-60
2022/06/07 03:48:17;;;;;;;9.48;6.07;;;;;;;12.69;94.36;96005.50;2001995;29;20062;-61
2022/06/07 03:49:18;;;;;;;9.07;7.65;;;;;;;12.70;93.94;96004.59;2001766;29;20053;-60
2022/06/07 03:50:19;;;;;;;9.23;7.15;;;;;;;12.68;94.15;96006.44;2002522;29;20061;-61
2022/06/07 03:51:22;;;;;;;10.07;7.35;;;;;;;12.67;94.04;95996.94;2007752;29;20114;-61
2022/06/07 03:52:24;;;;;;;8.05;6.60;;;;;;;12.68;94.28;96006.44;2009834;29;20053;-61
2022/06/07 03:53:25;;;;;;;9.57;7.63;;;;;;;12.67;94.32;96008.22;2002589;29;20078;-60
2022/06/07 03:54:27;;;;;;;8.30;6.97;;;;;;;12.68;94.23;96009.88;2002084;29;20053;-61
2022/06/07 03:55:28;;;;;;;12.23;7.50;;;;;;;12.70;94.24;96007.22;2001896;29;20469;-59
2022/06/07 03:56:38;;;;;;;11.70;8.05;;;;;;;12.74;94.73;96003.50;2002113;29;20050;-59
2022/06/07 03:57:42;;;;;;;8.02;5.32;;;;;;;12.70;94.37;96004.59;2002124;29;20065;-60
2022/06/07 03:58:43;;;;;;;7.45;6.10;;;;;;;12.77;94.18;95998.13;1994337;29;20482;-59
2022/06/07 03:59:45;;;;;;;7.95;5.78;;;;;;;12.76;94.38;96001.66;1994768;29;20054;-60
2022/06/07 04:00:46;;;;;;;11.70;6.05;;;;;;;12.75;93.65;96000.81;2002179;29;20430;-61
2022/06/07 04:01:50;;;;;;;10.70;6.18;;;;;;;12.72;93.71;95993.19;1995083;29;20046;-60
2022/06/07 04:02:51;;;;;;;7.07;5.80;;;;;;;12.74;94.16;96004.34;2001543;29;20426;-60
2022/06/07 04:03:55;;;;;;;9.00;5.80;;;;;;;12.67;93.62;96005.63;2009705;29;20058;-59
2022/06/07 04:04:57;;;;;;;8.82;5.40;;;;;;;12.66;93.76;95996.09;2002157;29;20052;-60
2022/06/07 04:05:59;;;;;;;10.07;5.65;;;;;;;12.65;93.71;96004.84;1994795;29;20045;-61
2022/06/07 04:08:31;;;;;;;8.55;5.22;;;;;;;12.65;93.40;96004.03;2002245;29;20061;-60
2022/06/07 04:09:39;;;;;;;16.58;6.18;;;;;;;12.66;93.89;96005.69;2001804;29;20449;-61
2022/06/07 04:10:58;;;;;;;7.30;5.18;;;;;;;12.67;93.44;96010.81;2005133;29;20046;-60
2022/06/07 04:12:12;;;;;;;6.10;4.82;;;;;;;12.66;93.71;96006.53;2005178;29;20053;-60
2022/06/07 04:13:14;;;;;;;6.90;5.40;;;;;;;12.70;93.77;96009.81;2009570;29;20049;-59
2022/06/07 04:14:16;;;;;;;6.43;4.25;;;;;;;12.64;93.16;96013.56;2002179;29;20678;-60
2022/06/07 04:15:18;;;;;;;8.20;5.75;;;;;;;12.65;93.10;96011.84;2009390;29;20053;-60
2022/06/07 04:16:22;;;;;;;8.60;5.70;;;;;;;12.64;93.34;96013.56;2009719;29;20049;-60
2022/06/07 04:17:28;;;;;;;8.20;5.30;;;;;;;12.69;93.05;96010.72;2002017;29;20478;-59
2022/06/07 04:18:41;;;;;;;9.30;5.88;;;;;;;12.63;93.39;96009.31;2003186;29;20832;-60
2022/06/07 04:19:44;;;;;;;11.13;6.18;;;;;;;12.64;93.29;96004.94;2001547;29;20041;-61
2022/06/07 04:20:47;;;;;;;7.25;5.82;;;;;;;12.63;93.76;96016.28;2009385;29;20069;-57
2022/06/07 04:21:48;;;;;;;10.32;6.55;;;;;;;12.62;93.44;96006.81;2001803;29;20058;-58
2022/06/07 04:23:03;;;;;;;7.80;6.53;;;;;;;12.65;93.74;96009.22;1996667;29;20458;-60
2022/06/07 04:24:07;;;;;;;9.45;7.28;;;;;;;12.68;94.36;96006.44;2009740;29;20041;-61
2022/06/07 04:25:11;;;;;;;8.90;6.43;;;;;;;12.66;93.92;96003.91;2005149;29;20053;-61
2022/06/07 04:26:17;;;;;;;11.50;7.03;;;;;;;12.67;94.07;96004.75;1994880;29;20065;-60
2022/06/07 04:27:20;;;;;;;8.18;6.35;;;;;;;12.67;94.46;96008.22;1996288;29;20446;-60
2022/06/07 04:28:27;;;;;;;9.02;6.47;;;;;;;12.69;94.05;96003.75;2008300;29;20049;-60
2022/06/07 04:29:28;;;;;;;10.80;7.03;;;;;;;12.69;94.09;96006.34;2001846;29;20049;-59
2022/06/07 04:30:31;;;;;;;7.82;6.80;;;;;;;12.76;94.32;96010.31;2001944;29;20053;-60
2022/06/07 04:31:36;;;;;;;9.23;6.65;;;;;;;12.74;93.89;96009.53;1997944;29;20068;-61
2022/06/07 04:32:46;;;;;;;10.10;5.93;;;;;;;12.79;93.85;96011.91;1994494;29;20050;-60
2022/06/07 04:33:50;;;;;;;14.15;7.53;;;;;;;12.82;94.34;96006.50;1989998;29;20061;-60
2022/06/07 04:34:54;;;;;;;8.75;6.32;;;;;;;12.88;93.99;96003.56;1996319;29;20058;-60
2022/06/07 04:35:59;;;;;;;14.75;6.53;;;;;;;12.86;93.90;96002.81;1995026;29;20065;-60
2022/06/07 04:37:02;;;;;;;8.90;6.18;;;;;;;12.81;93.84;96010.06;2002378;29;20054;-60
2022/06/07 04:38:04;;;;;;;10.43;6.25;;;;;;;12.80;93.96;96008.34;2008506;29;20053;-61
2022/06/07 04:39:11;;;;;;;8.98;6.00;;;;;;;12.77;93.87;96004.16;2001981;29;20057;-60
2022/06/07 04:40:17;;;;;;;8.88;6.30;;;;;;;12.73;94.03;96005.28;2002723;29;20453;-62
2022/06/07 04:41:20;;;;;;;8.02;5.65;;;;;;;12.72;93.80;96010.56;2003866;29;20065;-59
2022/06/07 04:42:25;;;;;;;8.13;6.30;;;;;;;12.73;93.31;96005.28;2008976;29;20068;-61
2022/06/07 04:43:35;;;;;;;9.05;6.55;;;;;;;12.77;93.56;96006.75;2009541;29;20049;-60
2022/06/07 04:44:36;;;;;;;12.52;6.20;;;;;;;12.73;93.64;96007.88;2008116;29;20057;-60
2022/06/07 04:45:38;;;;;;;8.88;6.28;;;;;;;12.76;93.78;96012.06;1994390;29;20438;-60
2022/06/07 04:46:43;;;;;;;9.18;6.93;;;;;;;12.78;93.65;96010.22;1987325;29;20127;-62
2022/06/07 04:47:45;;;;;;;11.45;7.20;;;;;;;12.79;93.69;96017.13;1994967;29;20053;-60
2022/06/07 04:48:47;;;;;;;12.43;7.20;;;;;;;12.76;94.00;96017.28;2008786;29;20053;-60
2022/06/07 04:49:52;;;;;;;12.65;7.85;;;;;;;12.78;93.82;96021.50;2006483;29;20079;-61
2022/06/07 04:51:12;;;;;;;9.30;6.95;;;;;;;12.79;94.00;96017.13;2009245;29;20065;-62
2022/06/07 04:52:19;;;;;;;7.63;6.45;;;;;;;12.90;93.55;96016.50;2001597;29;20054;-60
2022/06/07 04:53:20;;;;;;;9.77;7.25;;;;;;;12.90;93.97;96013.91;1994906;29;20507;-60
2022/06/07 04:54:21;;;;;;;6.72;5.95;;;;;;;12.94;93.81;96015.44;1994115;29;20061;-60
2022/06/07 04:55:25;;;;;;;9.40;6.70;;;;;;;12.93;93.98;96009.34;2002322;29;20152;-60
2022/06/07 04:56:31;;;;;;;9.02;7.05;;;;;;;13.00;93.57;96015.91;2001343;29;20054;-59
2022/06/07 04:57:32;;;;;;;10.90;6.72;;;;;;;13.02;93.79;96005.41;1994642;29;20069;-60
2022/06/07 04:58:33;;;;;;;7.40;6.50;;;;;;;13.04;93.37;96008.75;2001688;29;20046;-60
2022/06/07 04:59:34;;;;;;;8.95;6.90;;;;;;;13.07;93.20;96006.00;2009408;29;20431;-61
2022/06/07 05:00:37;;;;;;;9.25;6.85;;;;;;;13.08;93.51;95999.00;2001939;29;20046;-59
2022/06/07 05:01:43;;;;;;;9.80;7.13;;;;;;;13.07;93.19;95999.91;2002021;29;20537;-60
2022/06/07 05:02:51;;;;;;;9.38;6.68;;;;;;;13.16;93.37;96004.63;1993832;29;20177;-61
2022/06/07 05:03:52;;;;;;;8.77;6.63;;;;;;;13.17;93.23;96003.69;1995227;29;20065;-59
2022/06/07 05:04:54;;;;;;;11.65;6.88;;;;;;;13.16;93.46;96000.25;2009508;29;20528;-61
2022/06/07 05:05:58;;;;;;;9.52;7.05;;;;;;;13.16;93.17;96005.44;2005080;29;20428;-60
2022/06/07 05:07:00;;;;;;;9.75;6.13;;;;;;;13.23;93.41;95998.97;2008421;29;20060;-60